Flight Track Log - Related Links

Times and Time Zones

All times are in EST time to prevent confusion due to time zone crossing. See the BJS339 flight status page for this flight to view local times or setup timezone preferences in your user account.

Time Position Orientation Groundspeed Altitude Reporting Facility
EST Latitude Longitude Course Direction KTS MPH feet Rate Location/Type
Fri 08:09:35 PM 39.6361 -106.9469 105° East 189 217 8,300  Level Denver Center
Fri 08:10:37 PM 39.5950 -107.0086 229° Southwest 235 270 12,000 2,855 Climbing Denver Center
Fri 08:11:39 PM 39.6400 -107.0786 310° West 306 352 14,200 1,500 Climbing Denver Center
Fri 08:12:41 PM 39.7342 -107.0717 North 359 413 15,100 1,694 Climbing Denver Center
Fri 08:13:43 PM 39.8056 -106.9803 45° Northeast 373 429 17,700 3,048 Climbing Denver Center
Fri 08:14:00 PM 39.7283 -106.0923 114° Southeast  Level Estimated
Fri 08:14:45 PM 39.8614 -106.8606 59° Northeast 384 442 21,400  Level Denver Center
Fri 08:15:00 PM 39.7401 -105.9745 105° East  Level Estimated
Fri 08:15:47 PM 39.9297 -106.7583 49° Northeast 379 436 24,500  Level Denver Center
Fri 08:17:01 PM 40.0244 -106.6564 39° Northeast 378 435 26,000 657 Climbing Denver Center
Fri 08:18:04 PM 40.1122 -106.4903 55° Northeast 424 488 26,000  Level Denver Center
Fri 08:19:06 PM 40.1619 -106.3500 65° Northeast 426 490 26,000  Level Denver Center
Fri 08:20:08 PM 40.2125 -106.2083 65° Northeast 428 493 26,000  Level Denver Center
Fri 08:21:10 PM 40.2631 -106.0689 65° Northeast 425 489 26,000  Level Denver Center
Fri 08:22:12 PM 40.3089 -105.9372 65° Northeast 402 463 26,000  Level Denver Center
Fri 08:23:14 PM 40.3553 -105.8083 65° Northeast 392 451 26,000 -484 Level Denver Center
Fri 08:24:16 PM 40.3917 -105.6747 70° East 393 452 25,000 -1,597 Descending Denver Center
Fri 08:25:18 PM 40.3697 -105.5136 100° East 377 434 22,700 -1,920 Descending Denver Center
Fri 08:26:21 PM 40.3272 -105.3853 113° Southeast 377 434 21,000 -1,632 Descending Denver Center
Fri 08:27:23 PM 40.2653 -105.2706 125° Southeast 384 442 19,300 -1,610 Descending Denver Center
Fri 08:28:24 PM 40.2114 -105.1764 127° Southeast 382 440 17,700 -1,742 Descending Denver Center
Fri 08:29:27 PM 40.1353 -105.0422 127° Southeast 373 429 15,700 -1,920 Descending Denver Center
Fri 08:30:29 PM 40.0739 -104.9350 127° Southeast 371 427 13,700 -1,984 Descending Denver Center
Fri 08:31:31 PM 40.0094 -104.8231 127° Southeast 352 405 11,600 -1,258 Descending Denver Center
Fri 08:32:33 PM 39.9544 -104.7272 127° Southeast 341 392 11,100 -290 Descending Denver Center
Fri 08:33:35 PM 39.8956 -104.6244 127° Southeast 317 365 11,000  Descending Denver Center
Fri 08:34:37 PM 39.8539 -104.5461 125° Southeast 267 307 11,100 -97 Climbing Denver Center
Fri 08:35:39 PM 39.7894 -104.5283 168° South 243 280 10,800 -1,016 Descending Denver Center
Fri 08:36:41 PM 39.7164 -104.5231 177° South 242 278 9,000 -1,306 Descending Denver Center
Fri 08:37:43 PM 39.6583 -104.5467 197° South 228 262 8,100 -484 Descending Denver Center
Fri 08:38:45 PM 39.6900 -104.6089 303° West 215 247 8,000 -144 Descending Denver Center
Fri 08:39:48 PM 39.7361 -104.6367 335° Northwest 185 213 7,800 -720 Descending Denver Center
Fri 08:40:50 PM 39.7800 -104.6425 354° North 154 177 6,500 -1,016 Descending Denver Center
Fri 08:41:52 PM 39.8231 -104.6411 North 144 166 5,700 -532 Descending Denver Center
Fri 08:42:54 PM 39.8497 -104.6417 359° North 117 135 5,400 -290 Descending Denver Center
Fri 08:44:00 PM 39.8617 -104.6732 241° Southwest  Level Estimated
Fri 08:51:00 PM 39.8617 -104.6732 14° North  Level Estimated
Fri 08:52:00 PM 39.8617 -104.6732 157° South  Level Estimated

Login

Don't have an account? Register now (free) for customized features, flight alerts, and more!